Time;durP1;ratioP1;P1;durP2;ratioP2;P2;SDS_P1;SDS_P2;PMS_P1;PMS_P2;Temp;Humidity;BMP_temperature;BMP_pressure;BME280_temperature;BME280_humidity;BME280_pressure;Samples;Min_cycle;Max_cycle;Signal;HPM_P1;HPM_P2
2023/10/07 00:02:18;;;;;;;18.02;3.80;;;17.40;99.90;;;;;;4961175;28;20059;-74
2023/10/07 00:05:05;;;;;;;17.40;4.75;;;17.40;99.90;;;;;;4961948;28;20062;-77
2023/10/07 00:07:55;;;;;;;15.95;4.40;;;17.40;99.90;;;;;;4960023;28;20054;-80
2023/10/07 00:10:41;;;;;;;13.52;4.40;;;17.40;99.90;;;;;;4958080;28;20438;-73
2023/10/07 00:13:31;;;;;;;21.63;4.70;;;17.30;99.90;;;;;;4975227;28;20051;-83
2023/10/07 00:16:18;;;;;;;18.60;5.63;;;17.20;99.90;;;;;;4956908;28;20086;-79
2023/10/07 00:19:04;;;;;;;18.75;5.05;;;17.20;99.90;;;;;;4957477;28;20503;-76
2023/10/07 00:21:59;;;;;;;19.55;5.05;;;17.10;99.90;;;;;;4973731;28;20518;-73
2023/10/07 00:24:48;;;;;;;15.60;4.57;;;17.10;99.90;;;;;;4957277;28;20051;-75
2023/10/07 00:27:40;;;;;;;22.17;4.22;;;17.10;99.90;;;;;;4972315;28;20145;-72
2023/10/07 00:30:30;;;;;;;21.52;4.90;;;17.10;99.90;;;;;;4973601;28;20555;-78
2023/10/07 00:33:22;;;;;;;20.05;4.32;;;17.10;99.90;;;;;;4957217;28;20047;-75
2023/10/07 00:36:10;;;;;;;27.52;5.53;;;17.10;99.90;;;;;;4956396;28;20047;-74
2023/10/07 00:38:56;;;;;;;26.38;4.78;;;17.10;99.90;;;;;;4956630;28;20411;-74
2023/10/07 00:41:54;;;;;;;18.27;4.78;;;17.10;99.90;;;;;;4973337;28;20062;-74
2023/10/07 00:44:40;;;;;;;23.40;5.38;;;17.10;99.90;;;;;;4956964;28;20120;-75
2023/10/07 00:47:26;;;;;;;19.33;4.30;;;17.10;99.90;;;;;;4973281;28;20054;-75
2023/10/07 00:50:12;;;;;;;16.88;6.13;;;17.10;99.90;;;;;;4959841;28;20054;-79
2023/10/07 00:52:58;;;;;;;18.83;5.18;;;17.10;99.90;;;;;;4956308;28;20050;-77
2023/10/07 00:55:46;;;;;;;28.80;6.13;;;17.00;99.90;;;;;;4972929;28;20062;-74
2023/10/07 00:58:35;;;;;;;21.67;5.28;;;17.00;99.90;;;;;;4973368;28;20097;-75
2023/10/07 01:01:21;;;;;;;32.17;5.70;;;17.00;99.90;;;;;;4974294;28;20502;-76
2023/10/07 01:04:07;;;;;;;19.50;5.07;;;17.00;99.90;;;;;;4956985;28;20573;-78
2023/10/07 01:07:03;;;;;;;18.58;5.43;;;17.00;99.90;;;;;;4974304;28;20054;-73
2023/10/07 01:12:59;;;;;;;21.95;5.03;;;17.10;99.90;;;;;;4957019;28;20157;-74
2023/10/07 01:15:48;;;;;;;18.60;4.38;;;17.10;99.90;;;;;;4956656;28;20046;-84
2023/10/07 01:18:38;;;;;;;17.67;4.50;;;17.20;99.90;;;;;;4957327;28;20069;-74
2023/10/07 01:21:31;;;;;;;24.60;5.50;;;17.10;99.90;;;;;;4956528;28;20411;-80
2023/10/07 01:24:42;;;;;;;20.92;4.15;;;17.20;99.90;;;;;;4956426;28;20059;-78
2023/10/07 01:30:16;;;;;;;25.35;5.45;;;17.20;99.90;;;;;;4956180;28;20538;-76
2023/10/07 01:33:09;;;;;;;21.13;4.97;;;17.30;99.90;;;;;;4956117;28;20051;-82
2023/10/07 01:39:13;;;;;;;21.40;5.68;;;17.20;99.90;;;;;;4932766;28;20403;-74
2023/10/07 01:42:02;;;;;;;30.88;5.13;;;17.20;99.90;;;;;;4942717;28;20137;-86
2023/10/07 01:44:55;;;;;;;19.40;5.47;;;17.30;99.90;;;;;;4956138;28;20062;-75
2023/10/07 01:47:41;;;;;;;25.55;5.20;;;17.30;99.90;;;;;;4955624;28;20480;-77
2023/10/07 01:50:27;;;;;;;21.30;5.20;;;17.30;99.90;;;;;;4956270;28;20095;-88
2023/10/07 01:53:16;;;;;;;28.77;4.80;;;17.30;99.90;;;;;;4956117;28;20141;-73
2023/10/07 01:56:04;;;;;;;21.27;5.05;;;17.30;99.90;;;;;;4955822;28;20050;-82
2023/10/07 01:58:52;;;;;;;16.63;5.88;;;17.30;99.90;;;;;;4955846;28;20649;-79
2023/10/07 02:01:41;;;;;;;18.05;4.32;;;17.30;99.90;;;;;;4956187;28;20046;-80
2023/10/07 02:04:28;;;;;;;21.50;4.68;;;17.30;99.90;;;;;;4956188;28;20086;-78
2023/10/07 02:07:15;;;;;;;18.17;5.05;;;17.30;99.90;;;;;;4955733;28;20058;-75
2023/10/07 02:10:02;;;;;;;22.38;4.47;;;17.30;99.90;;;;;;4942710;28;20065;-77
2023/10/07 02:12:49;;;;;;;19.45;4.45;;;17.30;99.90;;;;;;4955734;28;20047;-75
2023/10/07 02:15:38;;;;;;;19.63;5.40;;;17.30;99.90;;;;;;4942498;28;20051;-81
2023/10/07 02:18:27;;;;;;;22.55;4.82;;;17.30;99.90;;;;;;4955192;28;20070;-74
2023/10/07 02:21:16;;;;;;;22.35;5.57;;;17.30;99.90;;;;;;4955612;28;20051;-74
2023/10/07 02:24:06;;;;;;;23.23;5.20;;;17.30;99.90;;;;;;4942344;28;20051;-83
2023/10/07 02:26:54;;;;;;;17.42;3.78;;;17.30;99.90;;;;;;4955043;28;20459;-79
2023/10/07 02:29:40;;;;;;;21.45;5.13;;;17.30;99.90;;;;;;4973115;28;20102;-86
2023/10/07 02:32:26;;;;;;;24.05;5.05;;;17.30;99.90;;;;;;4955623;28;20142;-74
2023/10/07 02:35:17;;;;;;;18.85;4.68;;;17.30;99.90;;;;;;4955664;28;20141;-89
2023/10/07 02:38:03;;;;;;;17.60;4.50;;;17.30;99.90;;;;;;4955601;28;20042;-73
2023/10/07 02:40:50;;;;;;;24.40;5.35;;;17.30;99.90;;;;;;4955631;28;20578;-75
2023/10/07 02:43:38;;;;;;;25.13;5.50;;;17.30;99.90;;;;;;4955587;28;20062;-78
2023/10/07 02:46:34;;;;;;;22.38;5.03;;;17.30;99.90;;;;;;4972591;28;20059;-76
2023/10/07 02:49:21;;;;;;;21.00;4.93;;;17.30;99.90;;;;;;4955121;28;20114;-78
2023/10/07 02:52:16;;;;;;;21.95;5.15;;;17.30;99.90;;;;;;4959065;28;20070;-84
2023/10/07 02:58:03;;;;;;;26.83;5.10;;;17.30;99.90;;;;;;4959298;28;20054;-79
2023/10/07 03:00:51;;;;;;;18.48;4.75;;;17.30;99.90;;;;;;4959515;28;20098;-76
2023/10/07 03:03:41;;;;;;;15.73;4.43;;;17.30;99.90;;;;;;4958699;28;20090;-81
2023/10/07 03:06:28;;;;;;;22.58;5.82;;;17.30;99.90;;;;;;4976497;28;20145;-81
2023/10/07 03:09:18;;;;;;;20.27;5.05;;;17.30;99.90;;;;;;4959254;28;20220;-78
2023/10/07 03:12:04;;;;;;;28.40;5.25;;;17.30;99.90;;;;;;4959122;28;20071;-75
2023/10/07 03:14:51;;;;;;;20.48;5.07;;;17.30;99.90;;;;;;4958874;28;20503;-76
2023/10/07 03:17:39;;;;;;;30.27;5.07;;;17.30;99.90;;;;;;4958601;28;20061;-74
2023/10/07 03:20:28;;;;;;;24.25;4.50;;;17.30;99.90;;;;;;4945250;28;20047;-75
2023/10/07 03:23:15;;;;;;;22.52;4.75;;;17.30;99.90;;;;;;4958089;28;20093;-75
2023/10/07 03:28:58;;;;;;;17.17;4.20;;;17.30;99.90;;;;;;4958526;28;20059;-80
2023/10/07 03:34:30;;;;;;;17.50;4.55;;;17.30;99.90;;;;;;4975966;28;20063;-82
2023/10/07 03:37:17;;;;;;;21.30;5.18;;;17.30;99.90;;;;;;4958035;28;20109;-80
2023/10/07 03:43:08;;;;;;;26.15;4.57;;;17.30;99.90;;;;;;4975895;28;20082;-81
2023/10/07 03:45:55;;;;;;;22.05;4.90;;;17.30;99.90;;;;;;4958313;28;20141;-84
2023/10/07 03:48:43;;;;;;;28.20;4.80;;;17.30;99.90;;;;;;4958784;28;20129;-83
2023/10/07 03:51:30;;;;;;;16.58;4.28;;;17.30;99.90;;;;;;4958456;28;20047;-81
2023/10/07 03:54:16;;;;;;;25.50;5.38;;;17.30;99.90;;;;;;4957951;28;20509;-77
2023/10/07 03:57:03;;;;;;;13.85;4.65;;;17.30;99.90;;;;;;4957779;28;20475;-76
2023/10/07 03:59:49;;;;;;;22.73;5.35;;;17.30;99.90;;;;;;4967303;28;20051;-74
2023/10/07 04:02:35;;;;;;;14.23;4.80;;;17.30;99.90;;;;;;4969048;28;20142;-73
2023/10/07 04:05:31;;;;;;;21.15;5.57;;;17.30;99.90;;;;;;4965999;28;20061;-80
2023/10/07 04:08:18;;;;;;;16.63;4.05;;;17.20;99.90;;;;;;4984323;28;20499;-79
2023/10/07 04:11:06;;;;;;;29.10;5.05;;;17.30;99.90;;;;;;4960875;28;20073;-74
2023/10/07 04:13:55;;;;;;;21.17;4.97;;;17.20;99.90;;;;;;4958074;28;20057;-73
2023/10/07 04:16:42;;;;;;;30.67;5.10;;;17.30;99.90;;;;;;4957615;28;20617;-74
2023/10/07 04:22:14;;;;;;;21.33;4.90;;;17.30;99.90;;;;;;4976086;28;20062;-79
2023/10/07 04:25:07;;;;;;;21.38;5.35;;;17.30;99.90;;;;;;4975119;28;20089;-73
2023/10/07 04:27:54;;;;;;;21.20;4.82;;;17.20;99.90;;;;;;4976578;28;20085;-74
2023/10/07 04:30:40;;;;;;;21.85;4.70;;;17.20;99.90;;;;;;4993423;28;20050;-72
2023/10/07 04:33:32;;;;;;;21.15;5.32;;;17.20;99.90;;;;;;4975645;28;20499;-73
2023/10/07 04:36:31;;;;;;;22.83;4.32;;;17.20;99.90;;;;;;4962554;28;20475;-73
2023/10/07 04:39:18;;;;;;;18.85;4.60;;;17.20;99.90;;;;;;4993098;28;20110;-74
2023/10/07 04:42:06;;;;;;;23.40;4.20;;;17.20;99.90;;;;;;4975424;28;20051;-75
2023/10/07 04:47:46;;;;;;;20.42;4.78;;;17.20;99.90;;;;;;4975696;28;20042;-74
2023/10/07 04:50:35;;;;;;;26.55;5.25;;;17.20;99.90;;;;;;4993693;28;20101;-73
2023/10/07 04:53:25;;;;;;;17.30;4.47;;;17.20;99.90;;;;;;4992861;28;20092;-73
2023/10/07 04:56:20;;;;;;;25.27;4.50;;;17.20;99.90;;;;;;4975835;28;20058;-77
2023/10/07 04:59:09;;;;;;;21.15;4.07;;;17.20;99.90;;;;;;4976305;28;20522;-74
2023/10/07 05:02:01;;;;;;;24.42;4.90;;;17.20;99.90;;;;;;4975788;28;20140;-73
2023/10/07 05:04:50;;;;;;;21.95;5.10;;;17.20;99.90;;;;;;4974292;28;20149;-76
2023/10/07 05:07:38;;;;;;;22.35;5.40;;;17.10;99.90;;;;;;4962225;28;20137;-74
2023/10/07 05:10:29;;;;;;;25.10;5.85;;;17.10;99.90;;;;;;4975256;28;20058;-74
2023/10/07 05:13:16;;;;;;;15.20;4.03;;;17.10;99.90;;;;;;4991962;28;20058;-74
2023/10/07 05:16:07;;;;;;;26.23;5.55;;;17.10;99.90;;;;;;4974617;28;20116;-75
2023/10/07 05:18:54;;;;;;;19.92;5.10;;;17.10;99.90;;;;;;4991827;28;20057;-74
2023/10/07 05:21:39;;;;;;;20.88;4.43;;;17.10;99.90;;;;;;4975511;28;20510;-74
2023/10/07 05:24:29;;;;;;;19.95;4.20;;;17.10;99.90;;;;;;4974305;28;20062;-73
2023/10/07 05:27:15;;;;;;;19.23;4.63;;;17.10;99.90;;;;;;4975062;28;20068;-77
2023/10/07 05:30:01;;;;;;;17.27;4.32;;;17.10;99.90;;;;;;4975303;28;20069;-74
2023/10/07 05:32:48;;;;;;;24.05;4.55;;;17.10;99.90;;;;;;4992054;28;20058;-74
2023/10/07 05:35:37;;;;;;;33.38;6.60;;;17.10;99.90;;;;;;4961348;28;20085;-74
2023/10/07 05:38:23;;;;;;;22.00;4.57;;;17.00;99.90;;;;;;4991261;28;20049;-74
2023/10/07 05:41:14;;;;;;;27.42;4.90;;;17.00;99.90;;;;;;4974079;28;20189;-75
2023/10/07 05:44:00;;;;;;;20.77;4.18;;;17.00;99.90;;;;;;4992374;28;20090;-74
2023/10/07 05:46:46;;;;;;;22.75;5.38;;;17.00;99.90;;;;;;4992632;28;20081;-74
2023/10/07 05:49:33;;;;;;;19.02;4.45;;;16.90;99.90;;;;;;4992388;28;20096;-74
2023/10/07 05:52:19;;;;;;;14.80;3.47;;;17.00;99.90;;;;;;4991956;28;20100;-74
2023/10/07 05:55:09;;;;;;;19.23;4.20;;;16.90;99.90;;;;;;4974948;28;20596;-74
2023/10/07 05:57:55;;;;;;;27.25;4.43;;;16.90;99.90;;;;;;4991963;28;20086;-74
2023/10/07 06:00:41;;;;;;;18.85;4.65;;;16.90;99.90;;;;;;4991736;28;20051;-74
2023/10/07 06:03:31;;;;;;;25.88;4.60;;;16.80;99.90;;;;;;4975617;28;20145;-78
2023/10/07 06:06:17;;;;;;;17.60;5.03;;;16.80;99.90;;;;;;4974993;28;20066;-76
2023/10/07 06:09:03;;;;;;;22.90;4.43;;;16.80;99.90;;;;;;4974616;28;20116;-73
2023/10/07 06:11:49;;;;;;;16.67;3.97;;;16.70;99.90;;;;;;4974712;28;20057;-75
2023/10/07 06:14:36;;;;;;;14.80;4.63;;;16.70;99.90;;;;;;4974238;28;20069;-74
2023/10/07 06:17:22;;;;;;;18.17;4.10;;;16.70;99.90;;;;;;4973794;28;20050;-75
2023/10/07 06:20:14;;;;;;;23.23;4.72;;;16.70;99.90;;;;;;4973536;28;20050;-73
2023/10/07 06:23:11;;;;;;;18.15;3.78;;;16.70;99.90;;;;;;4974316;28;20050;-75
2023/10/07 06:26:03;;;;;;;22.95;5.63;;;16.70;99.90;;;;;;4974296;28;20171;-74
2023/10/07 06:28:49;;;;;;;22.33;4.22;;;16.70;99.90;;;;;;4960953;28;20061;-77
2023/10/07 06:31:36;;;;;;;12.50;4.05;;;16.70;99.90;;;;;;4974248;28;20534;-78
2023/10/07 06:34:32;;;;;;;16.45;4.15;;;16.70;99.90;;;;;;4973350;28;20062;-79
2023/10/07 06:37:28;;;;;;;17.38;3.90;;;16.70;99.90;;;;;;4960741;28;20057;-74
2023/10/07 06:43:14;;;;;;;24.52;4.35;;;16.70;99.90;;;;;;4991999;28;20050;-79
2023/10/07 06:46:01;;;;;;;20.92;4.55;;;16.70;99.90;;;;;;4991537;28;20124;-75
2023/10/07 06:48:48;;;;;;;16.08;4.78;;;16.70;99.90;;;;;;4974497;28;20825;-79
2023/10/07 06:51:36;;;;;;;15.25;4.43;;;16.70;99.90;;;;;;4973212;28;20148;-80
2023/10/07 06:54:24;;;;;;;18.65;4.75;;;16.70;99.90;;;;;;4973923;28;20058;-78
2023/10/07 06:57:10;;;;;;;19.85;4.47;;;16.70;99.90;;;;;;4972494;28;20054;-77
2023/10/07 06:59:56;;;;;;;21.23;4.68;;;16.70;99.90;;;;;;4973861;28;20410;-75
2023/10/07 07:02:43;;;;;;;22.60;4.10;;;16.80;99.90;;;;;;4973831;28;20058;-76
2023/10/07 07:05:35;;;;;;;17.60;3.45;;;16.70;99.90;;;;;;4973864;28;20050;-76
2023/10/07 07:08:24;;;;;;;21.08;3.83;;;16.70;99.90;;;;;;4991281;28;20057;-77
2023/10/07 07:11:11;;;;;;;19.25;3.97;;;16.70;99.90;;;;;;4990421;28;20100;-75
2023/10/07 07:13:57;;;;;;;19.20;4.18;;;16.70;99.90;;;;;;4991555;28;20065;-78
2023/10/07 07:16:49;;;;;;;20.30;4.18;;;16.80;99.90;;;;;;4991844;28;20050;-80
2023/10/07 07:19:37;;;;;;;16.45;3.58;;;16.80;99.90;;;;;;4990922;28;20531;-82
2023/10/07 07:22:24;;;;;;;21.73;3.75;;;16.80;99.90;;;;;;4990667;28;20054;-82
2023/10/07 07:25:12;;;;;;;13.63;3.72;;;16.80;99.90;;;;;;4973715;28;20055;-76
2023/10/07 07:28:01;;;;;;;20.15;4.35;;;16.90;99.90;;;;;;4973381;28;20482;-75
2023/10/07 07:30:47;;;;;;;21.67;4.80;;;16.80;99.90;;;;;;4959791;28;20522;-80
2023/10/07 07:33:35;;;;;;;20.55;3.85;;;16.80;99.90;;;;;;4972938;28;20388;-73
2023/10/07 07:36:42;;;;;;;20.73;4.65;;;16.90;99.90;;;;;;4974636;28;20061;-76
2023/10/07 07:39:30;;;;;;;20.55;4.45;;;16.90;99.90;;;;;;4977269;28;20130;-76
2023/10/07 07:42:21;;;;;;;15.85;3.53;;;16.90;99.90;;;;;;4977783;28;20054;-74
2023/10/07 07:45:15;;;;;;;18.83;4.28;;;17.00;99.90;;;;;;4994734;28;20046;-76
2023/10/07 07:48:04;;;;;;;19.05;4.22;;;17.00;99.90;;;;;;4994903;28;20050;-75
2023/10/07 07:50:54;;;;;;;14.73;3.90;;;17.00;99.90;;;;;;4978039;28;20144;-77
2023/10/07 07:53:40;;;;;;;18.08;3.88;;;17.00;99.90;;;;;;4976582;28;20090;-84
2023/10/07 07:56:27;;;;;;;13.07;3.80;;;17.00;99.90;;;;;;4976751;28;20383;-76
2023/10/07 07:59:13;;;;;;;15.57;4.43;;;17.00;99.90;;;;;;4977715;28;20149;-74
2023/10/07 08:02:17;;;;;;;22.27;4.07;;;17.00;99.90;;;;;;4978439;28;20150;-73
2023/10/07 08:05:03;;;;;;;15.82;3.70;;;17.10;99.90;;;;;;4965961;28;20072;-77
2023/10/07 08:07:51;;;;;;;19.95;4.55;;;17.00;99.90;;;;;;4977201;28;20061;-76
2023/10/07 08:10:37;;;;;;;19.55;3.47;;;17.10;99.90;;;;;;4962036;28;20054;-76
2023/10/07 08:13:27;;;;;;;19.30;4.03;;;17.10;99.90;;;;;;4994007;28;20104;-75
2023/10/07 08:16:19;;;;;;;23.25;4.57;;;17.10;99.90;;;;;;4976146;28;20406;-75
2023/10/07 08:19:06;;;;;;;19.15;4.35;;;17.10;99.90;;;;;;4956672;28;20058;-75
2023/10/07 08:21:52;;;;;;;16.40;4.57;;;17.10;99.90;;;;;;4955989;28;20149;-74
2023/10/07 08:24:39;;;;;;;22.40;3.70;;;17.20;99.90;;;;;;4956927;28;20062;-77
2023/10/07 08:27:43;;;;;;;13.82;3.65;;;17.20;99.90;;;;;;4956656;28;20046;-75
2023/10/07 08:30:39;;;;;;;27.05;5.50;;;17.30;99.90;;;;;;4956154;28;20086;-77
2023/10/07 08:33:32;;;;;;;14.38;3.80;;;17.30;99.90;;;;;;4957003;28;20058;-74
2023/10/07 08:36:27;;;;;;;21.55;4.35;;;17.30;99.90;;;;;;4973814;28;20059;-78
2023/10/07 08:39:17;;;;;;;18.90;5.00;;;17.40;99.90;;;;;;4956334;28;20062;-75
2023/10/07 08:42:12;;;;;;;16.30;4.63;;;17.40;99.90;;;;;;4956320;28;20570;-76
2023/10/07 08:44:59;;;;;;;15.60;4.80;;;17.40;99.90;;;;;;4956617;28;20204;-80
2023/10/07 08:47:49;;;;;;;14.68;3.92;;;17.40;99.90;;;;;;4955672;28;20082;-74
2023/10/07 08:50:49;;;;;;;22.73;5.57;;;17.40;99.90;;;;;;4956350;28;20090;-79
2023/10/07 08:53:37;;;;;;;23.38;5.32;;;17.40;99.90;;;;;;4956711;28;20065;-75
2023/10/07 08:56:27;;;;;;;17.08;4.68;;;17.50;99.90;;;;;;4943032;28;20047;-75
2023/10/07 08:59:13;;;;;;;24.67;5.95;;;17.50;99.90;;;;;;4973289;28;20055;-74
2023/10/07 09:02:00;;;;;;;18.48;4.57;;;17.50;99.90;;;;;;4955462;28;20412;-79
2023/10/07 09:04:48;;;;;;;14.82;4.25;;;17.50;99.90;;;;;;4956110;28;20062;-74
2023/10/07 09:07:36;;;;;;;18.63;4.85;;;17.50;99.90;;;;;;4956385;28;20055;-75
2023/10/07 09:10:28;;;;;;;17.55;4.00;;;17.60;99.90;;;;;;4942527;28;20066;-75
2023/10/07 09:13:26;;;;;;;17.98;4.93;;;17.60;99.90;;;;;;4956556;28;20059;-77
2023/10/07 09:16:13;;;;;;;22.42;4.75;;;17.50;99.90;;;;;;4956345;28;20153;-77
2023/10/07 09:19:03;;;;;;;27.90;5.07;;;17.50;99.90;;;;;;4941435;28;20368;-74
2023/10/07 09:21:57;;;;;;;25.50;6.13;;;17.50;99.90;;;;;;4956517;28;20086;-73
2023/10/07 09:24:43;;;;;;;25.30;5.85;;;17.50;99.90;;;;;;4943290;28;20137;-73
2023/10/07 09:27:38;;;;;;;19.70;4.75;;;17.50;99.90;;;;;;4955665;28;20055;-74
2023/10/07 09:33:35;;;;;;;17.98;4.78;;;17.50;99.90;;;;;;4973694;28;20086;-73
2023/10/07 09:42:17;;;;;;;19.48;5.32;;;17.50;99.90;;;;;;4956190;28;20057;-74
2023/10/07 09:47:54;;;;;;;26.13;5.63;;;17.50;99.90;;;;;;4955969;28;20419;-73
2023/10/07 09:50:49;;;;;;;22.17;6.35;;;17.50;99.90;;;;;;4956148;28;20069;-74
2023/10/07 09:53:57;;;;;;;;;;;17.50;99.90;;;;;;4943266;28;20462;-73
2023/10/07 09:57:19;;;;;;;18.27;4.80;;;17.50;99.90;;;;;;4955346;28;19938;-75
2023/10/07 10:03:39;;;;;;;18.60;5.65;;;17.50;99.90;;;;;;4955986;28;20109;-74
2023/10/07 10:06:49;;;;;;;19.75;4.40;;;17.60;99.90;;;;;;4955627;28;20054;-74
2023/10/07 10:13:03;;;;;;;18.10;4.38;;;17.70;99.90;;;;;;4955835;28;20381;-74
2023/10/07 10:15:55;;;;;;;31.67;6.97;;;17.70;99.90;;;;;;4955453;28;20134;-74
2023/10/07 10:18:51;;;;;;;18.77;5.65;;;17.70;99.90;;;;;;4988682;28;20058;-78
2023/10/07 10:21:37;;;;;;;24.95;5.75;;;17.80;99.90;;;;;;4973866;28;20055;-79
2023/10/07 10:24:28;;;;;;;23.52;6.43;;;17.90;99.90;;;;;;4974030;28;20562;-74
2023/10/07 10:27:17;;;;;;;24.58;5.25;;;18.00;99.90;;;;;;4973814;28;20054;-77
2023/10/07 10:30:06;;;;;;;24.55;5.32;;;18.10;99.90;;;;;;4974191;28;20146;-74
2023/10/07 10:32:57;;;;;;;18.63;4.97;;;18.20;99.90;;;;;;4977772;28;20157;-73
2023/10/07 10:35:43;;;;;;;19.58;5.60;;;18.30;99.90;;;;;;4973147;28;20090;-76
2023/10/07 10:38:40;;;;;;;22.73;6.40;;;18.30;99.90;;;;;;4973661;28;20173;-76
2023/10/07 10:41:32;;;;;;;21.23;5.00;;;18.40;99.90;;;;;;4974106;28;20050;-76
2023/10/07 10:44:20;;;;;;;22.80;5.80;;;18.50;99.90;;;;;;4973437;28;20137;-81
2023/10/07 10:47:07;;;;;;;20.17;5.72;;;18.50;99.90;;;;;;4974058;28;20050;-74
2023/10/07 10:49:56;;;;;;;20.17;6.47;;;18.60;99.90;;;;;;4973991;28;20487;-73
2023/10/07 10:52:49;;;;;;;20.33;5.53;;;18.50;99.90;;;;;;4973001;28;20113;-75
2023/10/07 10:55:38;;;;;;;28.25;6.95;;;18.50;99.90;;;;;;4961296;28;20058;-76
2023/10/07 10:58:24;;;;;;;24.73;5.65;;;18.40;99.90;;;;;;4973480;28;20093;-77
2023/10/07 11:01:11;;;;;;;16.50;4.90;;;18.40;99.90;;;;;;4973453;28;20054;-79
2023/10/07 11:04:00;;;;;;;23.83;6.82;;;18.40;99.90;;;;;;4973730;28;20055;-86
2023/10/07 11:06:51;;;;;;;20.00;4.90;;;18.30;99.90;;;;;;4974225;28;20458;-82
2023/10/07 11:09:38;;;;;;;18.73;5.72;;;18.30;99.90;;;;;;4974201;28;20058;-75
2023/10/07 11:12:27;;;;;;;20.20;6.25;;;18.20;99.90;;;;;;4963691;28;20082;-79
2023/10/07 11:15:13;;;;;;;25.52;6.47;;;18.20;99.90;;;;;;4976969;28;20524;-76
2023/10/07 11:18:11;;;;;;;21.08;7.10;;;18.10;99.90;;;;;;4977711;28;20085;-79
2023/10/07 11:20:58;;;;;;;25.30;5.38;;;18.10;99.90;;;;;;4977241;28;20116;-83
2023/10/07 11:23:53;;;;;;;18.65;5.55;;;18.10;99.90;;;;;;4976974;28;20050;-76
2023/10/07 11:26:39;;;;;;;22.67;5.50;;;18.00;99.90;;;;;;4976742;28;20061;-77
2023/10/07 11:29:30;;;;;;;19.88;4.97;;;18.00;99.90;;;;;;4977543;28;20042;-74
2023/10/07 11:32:16;;;;;;;26.73;5.22;;;18.00;99.90;;;;;;4977462;28;20050;-75
2023/10/07 11:35:02;;;;;;;19.70;4.82;;;18.10;99.90;;;;;;4977066;28;20084;-84
2023/10/07 11:37:59;;;;;;;21.80;6.25;;;18.30;99.90;;;;;;4976864;28;20137;-74
2023/10/07 11:40:45;;;;;;;29.88;7.10;;;18.30;99.90;;;;;;4976935;28;20514;-75
2023/10/07 11:43:43;;;;;;;24.27;4.85;;;18.40;99.90;;;;;;4963031;28;20504;-76
2023/10/07 11:46:29;;;;;;;19.83;5.32;;;18.50;99.90;;;;;;4994229;28;20039;-73
2023/10/07 11:49:17;;;;;;;21.45;5.20;;;18.40;99.90;;;;;;4976745;28;20073;-76
2023/10/07 11:52:04;;;;;;;22.98;6.00;;;18.30;99.90;;;;;;4976135;28;20058;-80
2023/10/07 11:54:51;;;;;;;22.70;5.90;;;18.40;99.90;;;;;;4993116;28;20442;-78
2023/10/07 11:57:38;;;;;;;16.95;5.13;;;18.30;99.90;;;;;;4975726;28;20058;-80
2023/10/07 12:00:28;;;;;;;24.48;4.72;;;18.30;99.90;;;;;;4993839;28;20050;-78
2023/10/07 12:03:14;;;;;;;22.92;5.97;;;18.30;99.90;;;;;;4976223;28;20054;-78
2023/10/07 12:06:00;;;;;;;30.95;5.47;;;18.30;99.90;;;;;;4993673;28;20077;-74
2023/10/07 12:08:46;;;;;;;20.58;4.95;;;18.40;99.90;;;;;;4975892;28;20058;-77
2023/10/07 12:11:32;;;;;;;20.23;5.20;;;18.50;99.90;;;;;;4976741;28;20077;-77
2023/10/07 12:14:19;;;;;;;18.92;5.30;;;18.50;99.90;;;;;;4978230;28;20141;-72
2023/10/07 12:17:07;;;;;;;22.13;6.20;;;18.60;99.90;;;;;;4972929;28;20086;-73
2023/10/07 12:19:53;;;;;;;21.67;6.32;;;18.80;99.90;;;;;;4957696;28;20059;-76
2023/10/07 12:22:42;;;;;;;20.17;5.10;;;18.80;99.90;;;;;;4957552;28;20511;-81
2023/10/07 12:25:31;;;;;;;19.77;5.03;;;18.90;99.90;;;;;;4957106;28;20113;-77
2023/10/07 12:28:18;;;;;;;20.60;5.28;;;18.80;99.90;;;;;;4957642;28;20069;-76
2023/10/07 12:31:13;;;;;;;18.80;4.95;;;18.70;99.90;;;;;;4973537;28;20623;-76
2023/10/07 12:33:59;;;;;;;;;;;18.60;99.90;;;;;;4957278;28;20058;-75
2023/10/07 12:36:46;;;;;;;22.40;5.18;;;18.50;99.90;;;;;;4943876;28;20008;-77
2023/10/07 12:39:39;;;;;;;17.13;5.05;;;18.40;99.90;;;;;;4957120;28;20392;-74
2023/10/07 12:42:25;;;;;;;20.33;4.47;;;18.30;99.90;;;;;;4957412;28;20101;-75
2023/10/07 12:45:12;;;;;;;23.42;4.93;;;18.30;99.90;;;;;;4957029;28;20151;-75
2023/10/07 12:47:59;;;;;;;19.85;5.40;;;18.30;99.90;;;;;;4957238;28;20077;-74
2023/10/07 12:50:45;;;;;;;15.25;3.88;;;18.30;99.90;;;;;;4957524;28;20086;-73
2023/10/07 12:53:33;;;;;;;23.17;4.78;;;18.30;99.90;;;;;;4974333;28;20528;-77
2023/10/07 12:56:19;;;;;;;17.40;4.85;;;18.20;99.90;;;;;;4943612;28;20451;-73
2023/10/07 12:59:18;;;;;;;15.65;4.65;;;18.10;99.90;;;;;;4974214;28;20062;-75
2023/10/07 13:02:05;;;;;;;22.10;4.93;;;18.00;99.90;;;;;;4957425;28;20158;-76
2023/10/07 13:04:55;;;;;;;15.25;4.97;;;17.90;99.90;;;;;;4957116;28;20074;-83
2023/10/07 13:07:42;;;;;;;25.65;5.63;;;17.90;99.90;;;;;;4974487;28;20039;-75
2023/10/07 13:10:28;;;;;;;20.30;5.32;;;17.90;99.90;;;;;;4974352;28;20055;-77
2023/10/07 13:13:14;;;;;;;18.77;5.60;;;17.80;99.90;;;;;;4956457;28;20058;-73
2023/10/07 13:16:08;;;;;;;23.05;4.95;;;17.80;99.90;;;;;;4956618;28;20047;-74
2023/10/07 13:18:54;;;;;;;20.27;4.93;;;17.80;99.90;;;;;;4991649;28;20422;-73
2023/10/07 13:21:41;;;;;;;19.20;4.45;;;17.80;99.90;;;;;;4976584;28;20105;-73
2023/10/07 13:24:29;;;;;;;17.95;4.57;;;17.80;99.90;;;;;;4963125;28;20526;-75
2023/10/07 13:27:16;;;;;;;17.38;5.45;;;17.80;99.90;;;;;;4992670;28;20047;-73
2023/10/07 13:30:04;;;;;;;13.85;4.68;;;17.80;99.90;;;;;;4975860;28;20136;-72
2023/10/07 13:32:54;;;;;;;19.85;5.65;;;17.80;99.90;;;;;;4976522;28;20046;-72
2023/10/07 13:35:40;;;;;;;18.58;5.47;;;17.80;99.90;;;;;;4991441;28;20050;-73
2023/10/07 13:38:26;;;;;;;21.55;4.97;;;17.70;99.90;;;;;;4974240;28;20054;-73
2023/10/07 13:41:17;;;;;;;16.17;5.43;;;17.70;99.90;;;;;;4974958;28;20112;-77
2023/10/07 13:44:09;;;;;;;15.57;4.70;;;17.60;99.90;;;;;;4991579;28;20069;-74
2023/10/07 13:46:55;;;;;;;18.83;5.30;;;17.60;99.90;;;;;;4973754;28;20816;-74
2023/10/07 13:49:46;;;;;;;53.60;8.40;;;17.60;99.90;;;;;;4974191;28;20060;-72
2023/10/07 13:52:45;;;;;;;17.02;5.30;;;17.50;99.90;;;;;;4991704;28;20054;-75
2023/10/07 13:58:29;;;;;;;23.77;5.78;;;17.50;99.90;;;;;;4992298;28;20046;-73
2023/10/07 14:01:16;;;;;;;21.15;5.85;;;17.50;99.90;;;;;;4974719;28;20101;-73
2023/10/07 14:04:03;;;;;;;16.95;5.72;;;17.50;99.90;;;;;;4974313;28;20152;-73
2023/10/07 14:06:54;;;;;;;22.35;5.13;;;17.50;99.90;;;;;;4991242;28;20046;-74
2023/10/07 14:09:41;;;;;;;21.65;5.50;;;17.50;99.90;;;;;;4973600;28;20503;-72
2023/10/07 14:12:27;;;;;;;18.98;5.20;;;17.50;99.90;;;;;;4973815;28;20065;-77
2023/10/07 14:15:15;;;;;;;20.58;5.63;;;17.50;99.90;;;;;;4973353;28;20057;-74
2023/10/07 14:18:01;;;;;;;18.50;5.70;;;17.50;99.90;;;;;;4949921;28;20475;-75
2023/10/07 14:20:52;;;;;;;24.80;5.78;;;17.40;99.90;;;;;;4942173;28;20059;-73
2023/10/07 14:23:39;;;;;;;20.25;5.60;;;17.40;99.90;;;;;;4941963;28;20061;-73
2023/10/07 14:26:32;;;;;;;16.30;6.00;;;17.40;99.90;;;;;;4955303;28;20074;-73
2023/10/07 14:29:18;;;;;;;19.10;5.10;;;17.40;99.90;;;;;;4954686;28;20054;-73
2023/10/07 14:32:09;;;;;;;21.80;5.55;;;17.40;99.90;;;;;;4955470;28;20051;-73
2023/10/07 14:34:55;;;;;;;20.80;5.68;;;17.40;99.90;;;;;;4972704;28;20058;-73
2023/10/07 14:37:44;;;;;;;20.25;5.53;;;17.30;99.90;;;;;;4972931;28;20392;-73
2023/10/07 14:40:38;;;;;;;17.48;5.60;;;17.30;99.90;;;;;;4955561;28;20091;-73
2023/10/07 14:43:25;;;;;;;19.83;5.20;;;17.40;99.90;;;;;;4955426;28;20054;-73
2023/10/07 14:46:11;;;;;;;21.48;5.65;;;17.40;99.90;;;;;;4956745;28;20611;-76
2023/10/07 14:48:57;;;;;;;16.27;5.22;;;17.40;99.90;;;;;;4959745;28;20093;-74
2023/10/07 14:51:44;;;;;;;17.55;4.82;;;17.40;99.90;;;;;;4959472;28;20514;-73
2023/10/07 14:54:30;;;;;;;24.35;6.72;;;17.40;99.90;;;;;;4959091;28;20051;-73
2023/10/07 14:57:21;;;;;;;17.38;5.28;;;17.40;99.90;;;;;;4976812;28;20074;-73
2023/10/07 15:00:10;;;;;;;16.55;6.38;;;17.40;99.90;;;;;;4976831;28;20054;-73
2023/10/07 15:03:01;;;;;;;21.05;6.05;;;17.40;99.90;;;;;;4945602;28;20097;-74
2023/10/07 15:05:48;;;;;;;25.58;6.13;;;17.40;99.90;;;;;;4975870;28;20055;-73
2023/10/07 15:08:35;;;;;;;21.77;6.20;;;17.30;99.90;;;;;;4945675;28;20098;-73
2023/10/07 15:11:21;;;;;;;21.40;6.57;;;17.40;99.90;;;;;;4958421;28;20137;-76
2023/10/07 15:14:08;;;;;;;21.98;7.25;;;17.40;99.90;;;;;;4958636;28;20069;-75
2023/10/07 15:16:55;;;;;;;22.98;6.63;;;17.30;99.90;;;;;;4977633;28;20423;-72
2023/10/07 15:19:41;;;;;;;17.65;6.65;;;17.30;99.90;;;;;;4975772;28;20121;-73
2023/10/07 15:22:28;;;;;;;19.33;6.22;;;17.30;99.90;;;;;;4977297;28;20160;-72